Time;durP1;ratioP1;P1;durP2;ratioP2;P2;SDS_P1;SDS_P2;PMS_P1;PMS_P2;Temp;Humidity;BMP_temperature;BMP_pressure;BME280_temperature;BME280_humidity;BME280_pressure;Samples;Min_cycle;Max_cycle;Signal;HPM_P1;HPM_P2
2022/05/12 00:00:09;;;;;;;8.70;3.47;;;;;;;13.59;100.00;62252.75;5091493;28;20657;-72
2022/05/12 00:02:36;;;;;;;5.97;3.53;;;;;;;13.53;100.00;62246.31;5091405;28;20705;-71
2022/05/12 00:05:04;;;;;;;4.47;3.43;;;;;;;13.44;100.00;62239.72;5091474;28;20249;-74
2022/05/12 00:07:30;;;;;;;5.37;3.63;;;;;;;13.42;100.00;62239.59;5091374;28;20199;-72
2022/05/12 00:09:57;;;;;;;4.10;3.40;;;;;;;13.50;100.00;62246.16;5083885;28;20200;-73
2022/05/12 00:12:26;;;;;;;4.53;3.47;;;;;;;13.50;100.00;62245.66;5091472;28;20206;-73
2022/05/12 00:14:53;;;;;;;4.93;3.50;;;;;;;13.56;100.00;62249.53;5091483;28;20648;-73
2022/05/12 00:17:20;;;;;;;5.30;3.93;;;;;;;13.53;100.00;62246.31;5091534;28;20206;-71
2022/05/12 00:19:47;;;;;;;5.77;3.67;;;;;;;13.50;100.00;62243.09;5091199;28;20719;-72
2022/05/12 00:22:14;;;;;;;5.87;3.60;;;;;;;12.87;100.00;62183.06;5091187;28;20231;-72
2022/05/12 00:24:42;;;;;;;4.30;3.27;;;;;;;13.30;100.00;62224.16;5091406;28;20253;-72
2022/05/12 00:27:09;;;;;;;4.03;3.23;;;;;;;13.18;100.00;62209.22;5091093;28;20702;-71
2022/05/12 00:29:38;;;;;;;8.97;3.70;;;;;;;13.05;100.00;62197.28;5091280;28;20587;-74
2022/05/12 00:32:05;;;;;;;10.27;3.70;;;;;;;12.96;100.00;62187.63;5091261;28;20203;-73
2022/05/12 00:34:32;;;;;;;6.13;3.57;;;;;;;13.19;100.00;62209.78;5091080;28;20245;-71
2022/05/12 00:37:00;;;;;;;6.33;4.33;;;;;;;12.90;100.00;62178.63;5091406;28;20338;-72
2022/05/12 00:39:27;;;;;;;4.10;3.50;;;;;;;13.16;100.00;62209.13;5091359;28;20276;-72
2022/05/12 00:41:54;;;;;;;5.93;3.73;;;;;;;13.11;100.00;62204.28;5091125;28;20284;-72
2022/05/12 00:44:20;;;;;;;8.07;3.70;;;;;;;13.15;100.00;62208.03;5090882;28;20666;-72
2022/05/12 00:46:50;;;;;;;5.37;3.83;;;;;;;13.18;100.00;62208.72;5090949;28;20196;-72
2022/05/12 00:49:22;;;;;;;8.87;3.37;;;;;;;13.15;100.00;62205.47;5091266;28;20204;-72
2022/05/12 00:51:51;;;;;;;5.33;3.50;;;;;;;13.13;100.00;62203.88;5094512;28;20203;-72
2022/05/12 00:54:24;;;;;;;4.50;3.67;;;;;;;13.08;100.00;62203.09;5095311;28;20204;-72
2022/05/12 00:56:53;;;;;;;6.73;4.03;;;;;;;13.07;100.00;62202.00;5094714;28;20200;-73
2022/05/12 00:59:25;;;;;;;6.27;3.80;;;;;;;13.09;100.00;62199.03;5094808;28;20199;-72
2022/05/12 01:01:53;;;;;;;6.03;4.00;;;;;;;13.06;100.00;62193.25;5094467;28;20227;-72
2022/05/12 01:04:22;;;;;;;9.13;4.40;;;;;;;13.04;100.00;62193.69;5095140;28;20671;-72
2022/05/12 01:06:51;;;;;;;8.13;3.93;;;;;;;13.06;100.00;62196.34;5094800;28;20583;-73
2022/05/12 01:09:19;;;;;;;8.70;3.70;;;;;;;12.97;100.00;62186.13;5094841;28;20611;-73
2022/05/12 01:11:48;;;;;;;5.83;4.30;;;;;;;12.94;100.00;62182.91;5094688;28;20292;-72
2022/05/12 01:14:15;;;;;;;5.20;4.27;;;;;;;13.05;100.00;62197.28;5094549;28;20230;-72
2022/05/12 01:16:44;;;;;;;5.67;3.97;;;;;;;12.93;100.00;62182.38;5094264;28;20571;-72
2022/05/12 01:19:16;;;;;;;4.67;3.80;;;;;;;12.43;100.00;62134.34;5094072;28;20257;-71
2022/05/12 01:21:44;;;;;;;17.83;11.37;;;;;;;12.74;100.00;62167.63;5093824;28;20199;-72
2022/05/12 01:24:15;;;;;;;10.23;6.47;;;;;;;12.72;100.00;62162.91;5094299;28;20299;-73
2022/05/12 01:26:43;;;;;;;13.83;5.77;;;;;;;12.72;100.00;62162.91;5094092;28;20202;-70
2022/05/12 01:29:10;;;;;;;10.10;6.07;;;;;;;12.74;100.00;62159.94;5094016;28;20694;-73
2022/05/12 01:31:38;;;;;;;11.23;7.10;;;;;;;11.89;100.00;62071.31;5094110;28;20555;-72
2022/05/12 01:34:07;;;;;;;11.87;9.60;;;;;;;12.59;100.00;62146.41;5094190;28;20252;-73
2022/05/12 01:36:35;;;;;;;10.00;6.63;;;;;;;12.57;100.00;62146.81;5072453;28;20736;-72
2022/05/12 01:39:03;;;;;;;18.47;12.20;;;;;;;12.64;100.00;62151.78;5073643;28;20196;-72
2022/05/12 01:41:31;;;;;;;20.10;11.13;;;;;;;12.61;100.00;62148.03;5073744;28;20275;-72
2022/05/12 01:44:00;;;;;;;11.47;7.20;;;;;;;12.58;100.00;62145.34;5073812;28;20197;-72
2022/05/12 01:46:27;;;;;;;8.00;6.50;;;;;;;12.54;100.00;62145.59;5074480;28;20196;-72
2022/05/12 01:48:54;;;;;;;8.40;6.50;;;;;;;12.53;100.00;62142.53;5073432;28;20736;-72
2022/05/12 01:51:21;;;;;;;8.97;6.10;;;;;;;12.44;100.00;62135.41;5073600;28;20246;-71
2022/05/12 01:53:48;;;;;;;7.80;6.80;;;;;;;12.48;100.00;62134.59;5073347;28;20292;-72
2022/05/12 01:56:16;;;;;;;22.47;6.70;;;;;;;12.35;100.00;62120.13;5073629;28;20196;-72
2022/05/12 01:58:44;;;;;;;17.00;7.13;;;;;;;12.30;100.00;62117.28;5073379;28;20254;-71
2022/05/12 02:01:11;;;;;;;8.63;5.83;;;;;;;12.17;100.00;62101.34;5073224;28;20526;-73
2022/05/12 02:03:38;;;;;;;9.90;6.23;;;;;;;12.20;100.00;62104.00;5071402;28;20232;-71
2022/05/12 02:06:05;;;;;;;7.27;6.07;;;;;;;12.23;100.00;62115.44;5073265;28;20200;-71
2022/05/12 02:08:33;;;;;;;9.80;6.50;;;;;;;12.18;100.00;62104.41;5073105;28;20196;-72
2022/05/12 02:11:00;;;;;;;9.50;5.83;;;;;;;12.19;100.00;62100.94;5073124;28;20220;-71
2022/05/12 02:13:27;;;;;;;10.90;6.60;;;;;;;12.03;100.00;62088.34;5073018;28;20200;-72
2022/05/12 02:15:58;;;;;;;9.40;5.63;;;;;;;11.84;100.00;62068.47;5073156;28;20203;-73
2022/05/12 02:18:27;;;;;;;10.37;6.50;;;;;;;12.07;100.00;62093.16;5073095;28;20238;-72
2022/05/12 02:20:54;;;;;;;9.87;6.57;;;;;;;11.56;100.00;62041.53;5072848;28;20196;-72
2022/05/12 02:23:21;;;;;;;13.30;6.80;;;;;;;12.05;100.00;62091.00;5073226;28;20666;-73
2022/05/12 02:25:48;;;;;;;11.40;6.67;;;;;;;11.78;100.00;62059.50;5072929;28;20283;-73
2022/05/12 02:28:16;;;;;;;11.13;6.17;;;;;;;11.74;100.00;62055.75;5072652;28;20216;-72
2022/05/12 02:30:42;;;;;;;12.10;6.97;;;;;;;11.30;100.00;62010.53;5072698;28;20250;-73
2022/05/12 02:33:11;;;;;;;9.03;6.17;;;;;;;11.93;100.00;62073.03;5073018;28;20200;-75
2022/05/12 02:35:38;;;;;;;10.27;6.40;;;;;;;11.99;100.00;62087.13;5073126;28;20326;-73
2022/05/12 02:38:06;;;;;;;9.20;6.27;;;;;;;11.96;100.00;62078.81;5090149;28;20300;-72
2022/05/12 02:40:33;;;;;;;10.07;6.47;;;;;;;11.96;100.00;62080.81;5092761;28;20196;-73
2022/05/12 02:43:00;;;;;;;8.63;6.47;;;;;;;11.78;100.00;62064.59;5092727;28;20300;-73
2022/05/12 02:45:27;;;;;;;10.73;6.23;;;;;;;11.85;100.00;62067.00;5092725;28;20662;-72
2022/05/12 02:47:56;;;;;;;15.23;6.07;;;;;;;11.82;100.00;62063.78;5092561;28;20195;-72
2022/05/12 02:50:25;;;;;;;10.30;6.13;;;;;;;11.92;100.00;62074.50;5092661;28;20200;-73
2022/05/12 02:52:52;;;;;;;10.03;5.73;;;;;;;11.81;100.00;62060.69;5092732;28;20203;-73
2022/05/12 02:55:21;;;;;;;7.50;5.87;;;;;;;11.69;100.00;62055.47;5092871;28;20568;-73
2022/05/12 02:57:47;;;;;;;31.80;16.60;;;;;;;11.34;100.00;62012.28;5092640;28;20317;-74
2022/05/12 03:00:19;;;;;;;22.87;11.93;;;;;;;11.49;100.00;62028.38;5092406;28;20201;-77
2022/05/12 03:02:46;;;;;;;16.53;9.83;;;;;;;11.64;100.00;62047.56;5092175;28;20333;-73
2022/05/12 03:05:14;;;;;;;55.13;25.47;;;;;;;11.59;100.00;62039.63;5092335;28;20264;-72
2022/05/12 03:07:43;;;;;;;53.10;21.37;;;;;;;11.44;100.00;62023.00;5092321;28;20207;-72
2022/05/12 03:10:13;;;;;;;27.43;13.33;;;;;;;10.79;100.00;61959.50;5092683;28;20223;-73
2022/05/12 03:12:41;;;;;;;28.63;12.43;;;;;;;11.25;100.00;62000.09;5092137;28;20199;-72
2022/05/12 03:15:09;;;;;;;20.63;9.83;;;;;;;11.16;100.00;61993.00;5091449;28;20242;-73
2022/05/12 03:17:36;;;;;;;12.80;8.07;;;;;;;10.94;100.00;61970.50;5092474;28;20556;-73
2022/05/12 03:20:05;;;;;;;12.40;7.60;;;;;;;11.38;100.00;62019.13;5092295;28;20203;-75
2022/05/12 03:22:32;;;;;;;10.87;7.30;;;;;;;11.42;100.00;62018.31;5092001;28;20684;-74
2022/05/12 03:25:00;;;;;;;8.97;7.33;;;;;;;11.53;100.00;62030.13;5092008;28;20199;-72
2022/05/12 03:27:28;;;;;;;17.43;7.87;;;;;;;11.46;100.00;62028.25;5073855;28;20199;-74
2022/05/12 03:29:55;;;;;;;11.57;7.50;;;;;;;11.38;100.00;62016.56;5092295;28;20249;-72
2022/05/12 03:32:23;;;;;;;11.87;6.43;;;;;;;11.48;100.00;62029.84;5092159;28;20282;-73
2022/05/12 03:34:50;;;;;;;13.63;7.53;;;;;;;10.90;100.00;61965.66;5091969;28;20196;-72
2022/05/12 03:37:18;;;;;;;18.57;7.67;;;;;;;11.48;100.00;62027.28;5092205;28;20280;-73
2022/05/12 03:39:45;;;;;;;17.53;8.33;;;;;;;11.60;100.00;62047.81;5091756;28;20213;-72
2022/05/12 03:42:15;;;;;;;15.43;8.07;;;;;;;11.76;100.00;62057.34;5091596;28;20199;-73
2022/05/12 03:44:49;;;;;;;15.50;8.53;;;;;;;11.82;100.00;62063.78;5091557;28;20205;-75
2022/05/12 03:47:19;;;;;;;27.10;9.10;;;;;;;11.66;100.00;62041.50;5091944;28;20211;-74
2022/05/12 03:49:48;;;;;;;21.73;8.77;;;;;;;11.60;100.00;62040.16;5091594;28;20607;-73
2022/05/12 03:52:14;;;;;;;23.93;8.67;;;;;;;11.72;100.00;62051.03;5091929;28;20260;-71
2022/05/12 03:54:43;;;;;;;16.20;7.77;;;;;;;11.79;100.00;62055.47;5091942;28;20670;-72
2022/05/12 03:57:10;;;;;;;25.60;7.70;;;;;;;12.01;100.00;62084.16;5091534;28;20203;-72
2022/05/12 03:59:39;;;;;;;19.20;6.67;;;;;;;11.63;100.00;62035.75;5091806;28;20195;-72
2022/05/12 04:02:06;;;;;;;14.87;6.90;;;;;;;11.92;100.00;62079.63;5091465;28;20195;-73
2022/05/12 04:04:33;;;;;;;16.97;7.10;;;;;;;12.11;100.00;62097.47;5091061;28;20235;-71
2022/05/12 04:07:01;;;;;;;34.23;7.83;;;;;;;12.28;100.00;62110.56;5091296;28;20199;-73
2022/05/12 04:09:29;;;;;;;18.70;8.00;;;;;;;12.35;100.00;62118.09;5091717;28;20203;-72
2022/05/12 04:11:56;;;;;;;19.70;7.90;;;;;;;12.60;100.00;62147.47;5091541;28;20196;-73
2022/05/12 04:14:23;;;;;;;20.27;6.63;;;;;;;12.71;100.00;62159.28;5091247;28;20261;-73
2022/05/12 04:16:52;;;;;;;23.33;6.10;;;;;;;12.58;100.00;62155.56;5091078;28;20253;-71
2022/05/12 04:19:21;;;;;;;9.67;5.17;;;;;;;12.74;100.00;62167.06;5091189;28;20235;-73
2022/05/12 04:21:49;;;;;;;16.60;7.00;;;;;;;12.74;100.00;62162.50;5089984;28;20203;-72
2022/05/12 04:24:16;;;;;;;9.60;5.10;;;;;;;12.96;100.00;62185.06;5091120;28;20238;-73
2022/05/12 04:26:49;;;;;;;16.40;5.70;;;;;;;12.56;100.00;62145.75;5094894;28;20200;-73
2022/05/12 04:29:17;;;;;;;11.27;5.53;;;;;;;13.25;100.00;62216.22;5095968;28;20223;-71
2022/05/12 04:31:43;;;;;;;15.23;5.57;;;;;;;13.39;100.00;62231.25;5095338;28;20195;-72
2022/05/12 04:36:57;;;;;;;14.17;5.77;;;;;;;14.24;100.00;62322.63;5095258;28;20238;-71
2022/05/12 04:39:23;;;;;;;9.27;5.70;;;;;;;14.52;100.00;62352.22;5095000;28;20192;-71
2022/05/12 04:41:50;;;;;;;10.63;6.20;;;;;;;14.86;100.00;62383.09;5094980;28;20677;-72
2022/05/12 04:44:17;;;;;;;9.90;5.60;;;;;;;14.79;100.00;62383.28;5094902;28;20666;-72
2022/05/12 04:46:44;;;;;;;8.20;5.47;;;;;;;14.75;100.00;62381.53;5094502;28;20620;-72
2022/05/12 04:49:14;;;;;;;18.70;6.37;;;;;;;14.95;100.00;62403.06;5095359;28;20584;-71
2022/05/12 04:51:41;;;;;;;15.23;7.07;;;;;;;15.11;100.00;62413.09;5094716;28;20231;-72
2022/05/12 04:54:10;;;;;;;9.50;5.43;;;;;;;15.11;100.00;62412.56;5095077;28;20196;-75
2022/05/12 04:56:37;;;;;;;12.50;5.27;;;;;;;14.81;100.00;62385.44;5094877;28;20259;-73
2022/05/12 04:59:05;;;;;;;10.23;5.80;;;;;;;15.05;100.00;62408.69;5094474;28;20199;-73
2022/05/12 05:01:32;;;;;;;12.83;5.10;;;;;;;15.15;100.00;62416.88;5094645;28;20201;-72
2022/05/12 05:04:00;;;;;;;19.33;9.03;;;;;;;15.34;100.00;62442.44;5094250;28;20330;-72
2022/05/12 05:06:28;;;;;;;15.53;8.30;;;;;;;15.39;100.00;62447.84;5094262;28;20662;-73
2022/05/12 05:08:55;;;;;;;10.10;6.70;;;;;;;15.54;100.00;62456.28;5094291;28;20245;-71
2022/05/12 05:11:22;;;;;;;19.43;7.37;;;;;;;15.40;100.00;62448.91;5094493;28;20199;-71
2022/05/12 05:13:49;;;;;;;13.40;7.43;;;;;;;15.61;100.00;62471.53;5094123;28;20203;-72
2022/05/12 05:16:16;;;;;;;15.73;7.13;;;;;;;15.71;100.00;62479.19;5094182;28;20737;-74
2022/05/12 05:18:44;;;;;;;15.77;7.57;;;;;;;15.71;100.00;62482.31;5094440;28;20572;-72
2022/05/12 05:21:11;;;;;;;16.93;7.03;;;;;;;15.74;100.00;62482.97;5094155;28;20735;-72
2022/05/12 05:23:39;;;;;;;14.70;7.47;;;;;;;15.80;100.00;62492.00;5094114;28;20231;-73
2022/05/12 05:26:07;;;;;;;12.57;7.67;;;;;;;15.91;100.00;62500.75;5094153;28;20261;-73
2022/05/12 05:28:36;;;;;;;18.13;8.20;;;;;;;16.11;100.00;62521.72;5093958;28;20219;-72
2022/05/12 05:31:03;;;;;;;15.10;7.20;;;;;;;16.13;100.00;62518.75;5094209;28;20208;-72
2022/05/12 05:33:30;;;;;;;16.97;7.63;;;;;;;16.18;100.00;62534.44;5093976;28;20739;-72
2022/05/12 05:35:57;;;;;;;13.60;7.70;;;;;;;16.45;100.00;62558.38;5094122;28;20196;-72
2022/05/12 05:38:24;;;;;;;13.43;7.90;;;;;;;16.63;100.00;62577.78;5092936;28;20273;-70
2022/05/12 05:40:53;;;;;;;18.67;7.63;;;;;;;16.92;100.00;62609.56;5093625;28;20670;-71
2022/05/12 05:43:20;;;;;;;12.87;7.37;;;;;;;16.99;100.00;62618.59;5094221;28;20227;-72
2022/05/12 05:45:47;;;;;;;11.03;7.47;;;;;;;17.23;100.00;62642.44;5094070;28;20282;-72
2022/05/12 05:48:14;;;;;;;10.93;7.33;;;;;;;17.27;100.00;62646.75;5093854;28;20658;-72
2022/05/12 05:53:31;;;;;;;17.80;7.00;;;;;;;17.75;100.00;62697.50;5093877;28;20202;-71
2022/05/12 05:56:02;;;;;;;21.67;7.03;;;;;;;18.00;100.00;62719.28;5093787;28;20650;-73
2022/05/12 05:58:29;;;;;;;14.57;8.20;;;;;;;17.65;100.00;62690.34;5093443;28;20200;-72
2022/05/12 06:00:56;;;;;;;13.50;8.80;;;;;;;17.83;100.00;62708.69;5093397;28;20290;-72
2022/05/12 06:03:25;;;;;;;16.53;9.20;;;;;;;17.54;100.00;62675.91;5093509;28;20223;-71
2022/05/12 06:05:52;;;;;;;26.57;10.37;;;;;;;17.70;100.00;62693.16;5093211;28;20236;-72
2022/05/12 06:08:20;;;;;;;21.30;8.77;;;;;;;18.00;100.00;62725.00;5093783;28;20207;-72
2022/05/12 06:10:47;;;;;;;19.23;7.93;;;;;;;18.19;100.00;62747.53;5093500;28;20226;-71
2022/05/12 06:13:16;;;;;;;16.70;8.47;;;;;;;18.14;100.00;62742.13;5093575;28;20199;-72
2022/05/12 06:15:43;;;;;;;24.20;7.70;;;;;;;18.34;100.00;62758.56;5093421;28;20195;-73
2022/05/12 06:18:13;;;;;;;16.37;6.87;;;;;;;18.56;100.00;62784.91;5092995;28;20256;-74
2022/05/12 06:20:41;;;;;;;28.53;8.10;;;;;;;18.83;100.00;62813.53;5093466;28;20629;-72
2022/05/12 06:23:10;;;;;;;21.83;6.17;;;;;;;18.31;100.00;62752.75;5093109;28;20196;-71
2022/05/12 06:25:37;;;;;;;19.73;7.57;;;;;;;18.51;100.00;62780.03;5092918;28;20204;-73
2022/05/12 06:28:04;;;;;;;17.33;7.63;;;;;;;18.40;100.00;62767.63;5092766;28;20281;-72
2022/05/12 06:30:32;;;;;;;22.47;7.20;;;;;;;18.67;100.00;62799.38;5093062;28;20196;-72
2022/05/12 06:33:00;;;;;;;21.93;7.30;;;;;;;19.16;100.00;62847.13;5092647;28;20199;-72
2022/05/12 06:35:27;;;;;;;14.10;7.33;;;;;;;19.41;100.00;62876.19;5093087;28;20670;-71
2022/05/12 06:37:54;;;;;;;14.47;6.97;;;;;;;19.54;100.00;62887.66;5092529;28;20244;-73
2022/05/12 06:40:21;;;;;;;20.53;7.77;;;;;;;19.83;100.00;62923.63;5093193;28;20199;-73
2022/05/12 06:42:48;;;;;;;21.07;8.73;;;;;;;19.53;100.00;62886.03;5092791;28;20196;-72
2022/05/12 06:45:17;;;;;;;23.90;6.93;;;;;;;19.71;100.00;62910.66;5092513;28;20280;-73
2022/05/12 06:47:48;;;;;;;23.37;7.73;;;;;;;19.67;100.00;62903.75;5092590;28;20260;-72
2022/05/12 06:50:15;;;;;;;18.07;7.50;;;;;;;19.85;100.00;62923.75;5092581;28;20203;-71
2022/05/12 06:52:44;;;;;;;16.20;6.90;;;;;;;19.59;100.00;62895.09;5092697;28;20223;-73
2022/05/12 06:55:11;;;;;;;15.00;6.53;;;;;;;19.94;100.00;62932.94;5092683;28;20203;-72
2022/05/12 06:57:38;;;;;;;10.90;6.40;;;;;;;19.76;100.00;62918.66;5092328;28;20192;-71
2022/05/12 07:00:08;;;;;;;14.97;7.03;;;;;;;20.29;100.00;62970.78;5092118;28;20196;-71
2022/05/12 07:02:35;;;;;;;31.47;8.00;;;;;;;20.39;100.00;62984.19;5092357;28;20204;-71
2022/05/12 07:05:04;;;;;;;19.77;7.10;;;;;;;20.60;100.00;63004.31;5092139;28;20227;-73
2022/05/12 07:07:31;;;;;;;15.03;7.23;;;;;;;20.88;100.00;63034.63;5092244;28;20199;-73
2022/05/12 07:09:58;;;;;;;14.27;6.20;;;;;;;21.11;100.00;63058.97;5092190;28;20196;-73
2022/05/12 07:12:26;;;;;;;12.13;6.80;;;;;;;20.92;100.00;63041.53;5092020;28;20265;-73
2022/05/12 07:14:55;;;;;;;17.10;6.67;;;;;;;20.96;100.00;63043.28;5091851;28;20200;-72
2022/05/12 07:17:22;;;;;;;16.60;7.07;;;;;;;20.89;100.00;63040.31;5091788;28;20784;-71
2022/05/12 07:19:50;;;;;;;21.33;7.77;;;;;;;20.91;100.00;63037.84;5092073;28;20191;-71
2022/05/12 07:27:49;;;;;;;12.83;7.17;;;;;;;20.46;100.00;62988.63;5091975;28;20685;-72
2022/05/12 07:30:16;;;;;;;11.83;6.70;;;;;;;20.64;100.00;63008.66;5091900;28;20191;-72
2022/05/12 07:32:44;;;;;;;15.23;7.43;;;;;;;20.80;100.00;63023.38;5091603;28;20716;-72
2022/05/12 07:35:12;;;;;;;21.73;7.47;;;;;;;20.96;100.00;63043.28;5092212;28;20210;-73
2022/05/12 07:37:42;;;;;;;14.00;6.97;;;;;;;21.37;100.00;63086.56;5091393;28;20231;-72
2022/05/12 07:40:10;;;;;;;12.03;6.20;;;;;;;21.96;100.00;63147.31;5091741;28;20196;-72
2022/05/12 07:42:37;;;;;;;19.47;6.77;;;;;;;22.01;100.00;63155.34;5091413;28;20200;-72
2022/05/12 07:45:05;;;;;;;16.17;6.57;;;;;;;22.26;100.00;63185.00;5091650;28;20223;-74
2022/05/12 07:47:32;;;;;;;10.93;6.40;;;;;;;22.76;100.00;63236.06;5091409;28;20681;-72
2022/05/12 07:49:59;;;;;;;21.00;6.90;;;;;;;22.89;100.00;63250.69;5091298;28;20208;-72
2022/05/12 07:52:27;;;;;;;15.73;7.63;;;;;;;22.30;100.00;63189.88;5091855;28;20195;-72
2022/05/12 07:54:55;;;;;;;19.97;6.90;;;;;;;22.22;100.00;63180.66;5091573;28;20200;-73
2022/05/12 07:57:22;;;;;;;14.63;7.07;;;;;;;22.43;100.00;63201.38;5091571;28;20203;-71
2022/05/12 07:59:49;;;;;;;18.70;6.37;;;;;;;22.61;100.00;63220.91;5072918;28;20662;-72
2022/05/12 08:02:16;;;;;;;15.83;6.00;;;;;;;23.12;100.00;63275.09;5091206;28;20192;-73
2022/05/12 08:04:43;;;;;;;20.53;5.90;;;;;;;23.50;100.00;63314.25;5091219;28;20321;-73
2022/05/12 08:07:10;;;;;;;14.80;6.50;;;;;;;23.86;100.00;63355.34;5091425;28;20274;-72
2022/05/12 08:09:37;;;;;;;20.63;7.07;;;;;;;23.84;100.00;63353.19;5091456;28;20233;-72
2022/05/12 08:12:05;;;;;;;12.03;5.90;;;;;;;23.82;100.00;63351.03;5091674;28;20204;-72
2022/05/12 08:14:33;;;;;;;15.23;6.57;;;;;;;23.95;100.00;63369.78;5091488;28;20203;-72
2022/05/12 08:17:01;;;;;;;15.57;5.83;;;;;;;23.90;100.00;63359.16;5091228;28;20245;-71
2022/05/12 08:19:29;;;;;;;12.87;5.50;;;;;;;24.03;100.00;63373.81;5091573;28;20196;-73
2022/05/12 08:21:55;;;;;;;14.40;5.57;;;;;;;23.98;100.00;63365.78;5091142;28;20295;-73
2022/05/12 08:24:22;;;;;;;12.43;5.13;;;;;;;24.35;100.00;63407.47;5091544;28;20224;-72
2022/05/12 08:26:50;;;;;;;18.47;5.87;;;;;;;24.69;100.00;63444.88;5090987;28;20666;-72
2022/05/12 08:29:19;;;;;;;10.10;5.57;;;;;;;25.04;100.00;63482.38;5090688;28;20215;-72
2022/05/12 08:31:46;;;;;;;12.60;5.50;;;;;;;24.91;100.00;63468.28;5090911;28;20270;-72
2022/05/12 08:34:12;;;;;;;15.97;5.60;;;;;;;24.97;100.00;63474.78;5091072;28;20193;-72
2022/05/12 08:36:40;;;;;;;11.77;5.67;;;;;;;24.41;100.00;63414.50;5091300;28;20235;-74
2022/05/12 08:39:07;;;;;;;9.13;5.30;;;;;;;24.21;100.00;63388.13;5091201;28;20613;-71
2022/05/12 08:41:42;;;;;;;8.10;5.33;;;;;;;24.59;100.00;63436.13;5091304;28;20200;-72
2022/05/12 08:44:13;;;;;;;8.63;4.90;;;;;;;24.80;100.00;63456.31;5090885;28;20223;-72
2022/05/12 08:46:47;;;;;;;15.87;5.40;;;;;;;24.73;100.00;63449.25;5091233;28;20200;-73
2022/05/12 08:49:21;;;;;;;11.27;4.70;;;;;;;25.05;100.00;63483.47;5091224;28;20236;-72
2022/05/12 08:51:51;;;;;;;8.60;4.40;;;;;;;25.26;100.00;63506.25;5090824;28;20264;-72
2022/05/12 08:54:22;;;;;;;13.23;5.10;;;;;;;25.25;100.00;63505.19;5091076;28;20210;-72
2022/05/12 08:56:53;;;;;;;8.07;4.20;;;;;;;25.72;100.00;63553.09;5090801;28;20194;-73
2022/05/12 08:59:19;;;;;;;13.90;5.10;;;;;;;26.07;100.00;63588.56;5090825;28;20200;-73
2022/05/12 09:01:58;;;;;;;8.57;4.63;;;;;;;26.29;100.00;63617.13;5090694;28;20280;-72
2022/05/12 09:04:46;;;;;;;5.13;4.23;;;;;;;26.35;100.00;63623.66;5090825;28;20585;-72
2022/05/12 09:07:18;;;;;;;4.90;4.03;;;;;;;25.89;98.51;63572.13;5088436;28;20249;-73
2022/05/12 09:09:54;;;;;;;8.07;4.10;;;;;;;26.28;97.05;63616.59;5090872;28;20200;-72
2022/05/12 09:12:33;;;;;;;4.20;3.80;;;;;;;26.76;89.64;63663.03;5091885;28;20626;-74
2022/05/12 09:15:05;;;;;;;7.77;3.87;;;;;;;26.75;86.09;63665.09;5094399;28;20199;-72
2022/05/12 09:17:39;;;;;;;6.57;4.03;;;;;;;26.21;89.94;63609.00;5094177;28;20200;-73
2022/05/12 09:20:09;;;;;;;6.57;4.33;;;;;;;26.41;96.77;63628.13;5094273;28;20662;-71
2022/05/12 09:22:37;;;;;;;8.73;4.13;;;;;;;26.50;90.88;63639.97;5093715;28;20196;-74
2022/05/12 09:25:06;;;;;;;9.47;4.73;;;;;;;26.37;89.54;63621.16;5093872;28;20238;-73
2022/05/12 09:27:35;;;;;;;9.50;4.77;;;;;;;26.22;84.03;63609.53;5094038;28;20198;-72
2022/05/12 09:30:04;;;;;;;9.80;4.70;;;;;;;27.20;87.90;63716.13;5093583;28;20215;-72
2022/05/12 09:32:37;;;;;;;6.90;5.13;;;;;;;27.34;86.96;63726.16;5093929;28;20680;-72
2022/05/12 09:35:14;;;;;;;9.07;5.10;;;;;;;27.38;82.82;63733.13;5093910;28;20210;-73
2022/05/12 09:37:42;;;;;;;10.07;4.60;;;;;;;27.35;83.77;63732.47;5093700;28;20240;-72
2022/05/12 09:40:22;;;;;;;7.13;4.37;;;;;;;27.05;78.77;63699.78;5093691;28;20286;-72
2022/05/12 09:42:50;;;;;;;5.87;4.50;;;;;;;27.23;79.86;63719.38;5093919;28;20265;-71
2022/05/12 09:45:25;;;;;;;6.10;4.13;;;;;;;27.65;70.58;63764.03;5093685;28;20288;-72
2022/05/12 09:48:09;;;;;;;8.03;4.53;;;;;;;27.64;72.31;63757.69;5093925;28;20632;-72
2022/05/12 09:50:36;;;;;;;10.13;4.83;;;;;;;27.67;73.71;63768.81;5093647;28;20195;-73
2022/05/12 09:53:06;;;;;;;4.20;3.80;;;;;;;27.83;75.67;63781.00;5093692;28;20196;-72
2022/05/12 09:55:36;;;;;;;10.70;4.03;;;;;;;27.93;73.13;63794.50;5093326;28;20203;-74
2022/05/12 09:58:07;;;;;;;7.17;4.23;;;;;;;27.67;69.86;63769.34;5093506;28;20303;-72
2022/05/12 10:00:40;;;;;;;6.67;4.27;;;;;;;27.70;64.65;63766.84;5093392;28;20659;-73
2022/05/12 10:09:06;;;;;;;4.53;3.77;;;;;;;27.09;66.01;63704.16;5093417;28;20252;-72
2022/05/12 10:11:40;;;;;;;5.07;3.93;;;;;;;26.42;64.43;63631.28;5093438;28;20204;-73
2022/05/12 10:14:16;;;;;;;7.73;3.47;;;;;;;27.39;56.88;63734.19;5093450;28;20203;-72
2022/05/12 10:16:43;;;;;;;7.30;3.30;;;;;;;27.99;52.64;63798.44;5093417;28;20218;-75
2022/05/12 10:19:22;;;;;;;7.43;3.80;;;;;;;27.97;53.58;63796.78;5093257;28;20245;-73
2022/05/12 10:21:54;;;;;;;6.20;3.70;;;;;;;27.98;57.09;63803.13;5093393;28;20283;-73
2022/05/12 10:24:28;;;;;;;8.50;3.83;;;;;;;28.19;51.94;63820.22;5092579;28;20244;-72
2022/05/12 10:27:00;;;;;;;6.83;3.20;;;;;;;27.85;50.01;63785.78;5092874;28;20272;-72
2022/05/12 10:29:40;;;;;;;7.00;3.67;;;;;;;28.53;51.88;63859.84;5093242;28;20211;-75
2022/05/12 10:32:14;;;;;;;9.87;3.73;;;;;;;28.45;49.26;63850.59;5092859;28;20203;-74
2022/05/12 10:34:52;;;;;;;9.30;3.60;;;;;;;28.43;49.77;63848.97;5092668;28;20262;-72
2022/05/12 10:37:35;;;;;;;6.53;3.43;;;;;;;28.91;45.50;63900.72;5092548;28;20231;-73
2022/05/12 10:40:25;;;;;;;7.30;3.40;;;;;;;28.25;44.56;63829.88;5092608;28;20204;-74
2022/05/12 10:43:02;;;;;;;5.67;3.50;;;;;;;28.56;44.39;63863.13;5092594;28;20626;-72
2022/05/12 10:45:37;;;;;;;5.03;3.37;;;;;;;28.29;49.54;63834.25;5092219;28;20273;-74
2022/05/12 10:48:22;;;;;;;5.63;3.53;;;;;;;28.68;48.69;63873.03;5092379;28;20198;-74
2022/05/12 10:50:58;;;;;;;5.00;3.03;;;;;;;28.83;47.88;63895.16;5092511;28;20196;-72
2022/05/12 10:53:35;;;;;;;6.13;3.13;;;;;;;29.10;44.12;63919.31;5092681;28;20202;-72
2022/05/12 10:56:12;;;;;;;5.50;2.80;;;;;;;28.91;36.68;63901.25;5092652;28;20200;-73
2022/05/12 10:58:46;;;;;;;5.97;2.50;;;;;;;29.03;32.39;63911.72;5092763;28;20192;-72
2022/05/12 11:01:19;;;;;;;5.90;2.40;;;;;;;29.08;33.15;63917.16;5074542;28;20204;-73
2022/05/12 11:03:53;;;;;;;6.63;2.63;;;;;;;29.33;33.67;63943.31;5092060;28;20724;-74
2022/05/12 11:06:26;;;;;;;4.80;2.60;;;;;;;29.14;34.54;63926.34;5092603;28;20624;-73
2022/05/12 11:08:57;;;;;;;7.07;3.10;;;;;;;29.72;35.93;63985.88;5092402;28;20232;-74
2022/05/12 11:11:28;;;;;;;6.43;3.10;;;;;;;30.16;36.67;64033.84;5092208;28;20286;-72
2022/05/12 11:14:02;;;;;;;5.73;2.80;;;;;;;30.29;35.41;64050.66;5092041;28;20256;-72
2022/05/12 11:16:36;;;;;;;3.70;3.40;;;;;;;29.86;34.59;64003.75;5092342;28;20198;-73
2022/05/12 11:19:09;;;;;;;6.93;2.93;;;;;;;30.29;34.85;64050.66;5092018;28;20264;-73
2022/05/12 11:21:44;;;;;;;3.87;2.80;;;;;;;30.21;35.94;64041.91;5092159;28;20192;-72
2022/05/12 11:24:25;;;;;;;10.97;3.90;;;;;;;29.82;37.61;63996.75;5091896;28;20206;-71
2022/05/12 11:27:15;;;;;;;3.80;3.20;;;;;;;29.59;39.37;63977.47;5091742;28;20235;-73
2022/05/12 11:29:54;;;;;;;8.13;3.40;;;;;;;29.94;39.97;64012.47;5089175;28;20292;-74
2022/05/12 11:32:43;;;;;;;6.13;3.23;;;;;;;30.17;38.86;64032.28;5091930;28;20250;-73
2022/05/12 11:35:13;;;;;;;9.70;3.07;;;;;;;29.93;39.28;64006.13;5091242;28;20285;-73
2022/05/12 11:37:57;;;;;;;8.00;2.90;;;;;;;30.13;40.08;64038.44;5092205;28;20263;-74
2022/05/12 11:40:52;;;;;;;6.67;3.30;;;;;;;30.40;39.52;64059.47;5091719;28;20665;-74
2022/05/12 11:46:53;;;;;;;6.83;3.30;;;;;;;30.65;39.37;64092.56;5063613;28;20380;-73
2022/05/12 11:49:45;;;;;;;4.63;2.90;;;;;;;30.62;38.69;64086.66;5091716;28;20196;-72
2022/05/12 11:52:30;;;;;;;5.53;3.20;;;;;;;30.61;38.30;64085.56;5091828;28;20252;-72